Time;durP1;ratioP1;P1;durP2;ratioP2;P2;SDS_P1;SDS_P2;PMS_P1;PMS_P2;Temp;Humidity;BMP_temperature;BMP_pressure;BME280_temperature;BME280_humidity;BME280_pressure;Samples;Min_cycle;Max_cycle;Signal;HPM_P1;HPM_P2
2022/11/11 00:01:12;;;;;;;8.63;5.40;;;12.30;99.90;;;;;;5081004;28;20046;-87
2022/11/11 00:03:38;;;;;;;9.75;4.95;;;12.30;99.90;;;;;;5098915;28;20032;-87
2022/11/11 00:06:08;;;;;;;15.23;5.93;;;12.20;99.90;;;;;;5060758;28;20065;-87
2022/11/11 00:08:33;;;;;;;10.77;5.32;;;12.20;99.90;;;;;;5097287;28;20510;-87
2022/11/11 00:11:04;;;;;;;14.23;5.60;;;12.10;99.90;;;;;;5099696;28;20051;-87
2022/11/11 00:13:31;;;;;;;11.45;5.50;;;12.10;99.90;;;;;;5102159;28;20071;-87
2022/11/11 00:16:02;;;;;;;11.05;5.10;;;12.10;99.90;;;;;;5068424;28;20119;-87
2022/11/11 00:26:44;;;;;;;12.77;5.53;;;12.30;99.90;;;;;;5091527;28;20039;-87
2022/11/11 00:29:10;;;;;;;10.50;4.97;;;12.20;99.90;;;;;;5074311;28;20027;-87
2022/11/11 00:32:21;;;;;;;12.40;5.85;;;12.20;99.90;;;;;;5084860;28;20046;-76
2022/11/11 00:34:21;;;;;;;10.32;5.35;;;12.20;99.90;;;;;;5090584;28;20496;-76
2022/11/11 00:36:47;;;;;;;12.50;5.63;;;12.10;99.90;;;;;;5107725;28;20090;-76
2022/11/11 00:39:12;;;;;;;10.87;5.20;;;12.10;99.90;;;;;;5101897;28;20653;-76
2022/11/11 00:41:38;;;;;;;9.50;4.82;;;12.20;99.90;;;;;;5090606;28;20075;-76
2022/11/11 00:44:04;;;;;;;11.52;5.68;;;12.10;99.90;;;;;;5063838;28;20047;-76
2022/11/11 00:51:58;;;;;;;15.73;5.10;;;12.20;99.90;;;;;;5099248;28;20048;-76
2022/11/11 00:54:23;;;;;;;11.90;5.27;;;12.20;99.90;;;;;;5085538;28;20032;-76
2022/11/11 00:56:49;;;;;;;10.53;5.33;;;12.10;99.90;;;;;;5102716;28;20031;-76
2022/11/11 00:59:14;;;;;;;11.90;5.60;;;12.10;99.90;;;;;;5099450;28;20284;-76
2022/11/11 01:01:40;;;;;;;13.15;5.43;;;12.10;99.90;;;;;;5086341;28;20133;-76
2022/11/11 01:04:06;;;;;;;10.07;5.07;;;12.10;99.90;;;;;;5054116;28;20043;-76
2022/11/11 01:06:32;;;;;;;10.85;5.07;;;12.30;99.90;;;;;;5107734;28;20043;-76
2022/11/11 01:08:57;;;;;;;12.00;5.40;;;11.80;99.90;;;;;;5082473;28;20043;-76
2022/11/11 01:11:24;;;;;;;10.30;5.20;;;12.20;99.90;;;;;;5101542;28;20039;-76
2022/11/11 01:13:50;;;;;;;10.18;5.65;;;12.20;99.90;;;;;;5100977;28;20300;-76
2022/11/11 01:16:22;;;;;;;13.60;6.57;;;12.30;99.90;;;;;;5082580;28;20043;-76
2022/11/11 01:18:50;;;;;;;12.40;5.50;;;12.20;99.90;;;;;;5104358;28;20039;-76
2022/11/11 01:21:22;;;;;;;14.48;6.70;;;12.20;99.90;;;;;;5097647;28;20050;-76
2022/11/11 01:23:49;;;;;;;12.18;6.20;;;12.20;99.90;;;;;;5102350;28;20036;-76
2022/11/11 01:26:18;;;;;;;9.52;5.20;;;12.20;99.90;;;;;;5101885;28;20051;-76
2022/11/11 01:28:44;;;;;;;13.13;7.22;;;12.20;99.90;;;;;;5082507;28;20032;-76
2022/11/11 01:31:12;;;;;;;15.90;6.25;;;12.20;99.90;;;;;;5099768;28;20044;-76
2022/11/11 01:33:38;;;;;;;12.45;5.97;;;12.20;99.90;;;;;;5082157;28;20079;-76
2022/11/11 01:36:11;;;;;;;11.02;5.28;;;12.20;99.90;;;;;;5101701;28;20123;-76
2022/11/11 01:38:37;;;;;;;11.65;6.13;;;12.20;99.90;;;;;;5098852;28;20040;-76
2022/11/11 01:41:31;;;;;;;15.15;6.03;;;12.10;99.90;;;;;;5101594;28;20130;-76
2022/11/11 01:43:52;;;;;;;12.73;6.13;;;12.20;99.90;;;;;;5100394;28;20055;-76
2022/11/11 01:46:40;;;;;;;12.32;5.82;;;12.30;99.90;;;;;;5084952;28;20040;-76
2022/11/11 01:49:28;;;;;;;15.52;6.63;;;12.20;99.90;;;;;;5084319;28;20082;-76
2022/11/11 01:52:15;;;;;;;15.88;6.72;;;12.10;99.90;;;;;;5098827;28;20047;-76
2022/11/11 01:54:52;;;;;;;13.83;6.17;;;12.10;99.90;;;;;;5084684;28;20066;-75
2022/11/11 01:57:37;;;;;;;11.32;6.00;;;12.20;99.90;;;;;;5101035;28;20316;-75
2022/11/11 02:00:09;;;;;;;14.13;6.68;;;12.10;99.90;;;;;;5084464;28;20039;-75
2022/11/11 02:02:49;;;;;;;13.02;6.05;;;12.10;99.90;;;;;;5101529;28;20142;-75
2022/11/11 02:08:06;;;;;;;13.50;6.55;;;12.20;99.90;;;;;;5103497;28;20036;-76
2022/11/11 02:10:33;;;;;;;13.23;5.47;;;12.00;99.90;;;;;;5081204;28;20046;-76
2022/11/11 02:15:44;;;;;;;16.00;7.53;;;12.00;99.90;;;;;;5084271;28;20088;-76
2022/11/11 02:18:10;;;;;;;15.55;7.20;;;12.00;99.90;;;;;;5067191;28;20046;-76
2022/11/11 02:20:39;;;;;;;20.00;7.22;;;12.00;99.90;;;;;;5059186;28;20044;-77
2022/11/11 02:23:14;;;;;;;16.20;7.90;;;11.90;99.90;;;;;;5100842;28;20046;-76
2022/11/11 02:25:43;;;;;;;19.05;8.00;;;11.90;99.90;;;;;;5108114;28;20055;-76
2022/11/11 02:28:10;;;;;;;11.75;7.30;;;11.90;99.90;;;;;;5100019;28;20454;-76
2022/11/11 02:30:36;;;;;;;15.95;7.22;;;11.90;99.90;;;;;;5099591;28;20564;-77
2022/11/11 02:33:02;;;;;;;18.43;7.47;;;11.90;99.90;;;;;;5069111;28;20040;-76
2022/11/11 02:35:33;;;;;;;18.50;7.83;;;11.90;99.90;;;;;;5100415;28;20603;-76
2022/11/11 02:38:04;;;;;;;13.23;6.93;;;11.90;99.90;;;;;;5103932;28;20362;-76
2022/11/11 02:41:55;;;;;;;16.52;7.78;;;12.00;99.90;;;;;;5102730;28;20100;-76
2022/11/11 02:43:24;;;;;;;15.23;7.50;;;12.00;99.90;;;;;;5094806;28;20072;-76
2022/11/11 02:45:50;;;;;;;15.98;8.45;;;12.00;99.90;;;;;;5100470;28;20514;-75
2022/11/11 02:48:16;;;;;;;14.55;7.78;;;12.00;99.90;;;;;;5086455;28;20036;-76
2022/11/11 02:50:42;;;;;;;17.10;8.48;;;12.00;99.90;;;;;;5102428;28;20127;-76
2022/11/11 02:53:07;;;;;;;19.07;8.73;;;12.00;99.90;;;;;;5086150;28;20105;-76
2022/11/11 02:55:33;;;;;;;16.27;7.57;;;12.00;99.90;;;;;;5080556;28;20293;-76
2022/11/11 02:57:59;;;;;;;19.60;9.20;;;12.00;99.90;;;;;;5066735;28;20284;-76
2022/11/11 03:00:25;;;;;;;;;;;11.90;99.90;;;;;;5064337;28;20099;-76
2022/11/11 03:02:51;;;;;;;15.93;9.50;;;11.90;99.90;;;;;;5101674;28;19920;-76
2022/11/11 03:05:17;;;;;;;23.27;9.85;;;11.80;99.90;;;;;;5080391;28;20134;-76
2022/11/11 03:07:43;;;;;;;21.40;11.23;;;11.80;99.90;;;;;;5063923;28;20135;-76
2022/11/11 03:10:09;;;;;;;15.43;9.80;;;11.80;99.90;;;;;;5097605;28;20371;-76
2022/11/11 03:12:35;;;;;;;19.15;11.65;;;11.80;99.90;;;;;;5077703;28;20051;-75
2022/11/11 03:15:01;;;;;;;20.02;10.48;;;11.80;99.90;;;;;;5085527;28;20047;-76
2022/11/11 03:17:39;;;;;;;21.00;11.50;;;11.70;99.90;;;;;;5062748;28;20050;-76
2022/11/11 03:23:13;;;;;;;28.13;13.13;;;11.60;99.90;;;;;;5096733;28;20169;-76
2022/11/11 03:25:43;;;;;;;21.88;12.45;;;11.60;99.90;;;;;;5094640;28;20396;-75
2022/11/11 03:28:19;;;;;;;25.98;13.10;;;11.50;99.90;;;;;;5096079;28;20090;-75
2022/11/11 03:30:48;;;;;;;28.92;11.95;;;11.50;99.90;;;;;;5080800;28;20380;-76
2022/11/11 03:33:14;;;;;;;22.77;13.05;;;11.50;99.90;;;;;;5080321;28;20093;-75
2022/11/11 03:35:41;;;;;;;24.92;12.90;;;11.50;99.90;;;;;;5082320;28;20492;-76
2022/11/11 03:38:23;;;;;;;18.48;10.90;;;11.40;99.90;;;;;;5100091;28;20040;-77
2022/11/11 03:40:51;;;;;;;26.08;12.18;;;11.50;99.90;;;;;;5106736;28;20059;-76
2022/11/11 03:43:19;;;;;;;23.33;13.05;;;11.60;99.90;;;;;;5085838;28;20426;-76
2022/11/11 03:45:45;;;;;;;24.02;13.10;;;11.50;99.90;;;;;;5102304;28;20040;-76
2022/11/11 03:48:11;;;;;;;26.25;13.70;;;11.60;99.90;;;;;;5097251;28;20059;-76
2022/11/11 03:50:37;;;;;;;23.60;12.60;;;11.60;99.90;;;;;;5079855;28;20039;-76
2022/11/11 03:53:03;;;;;;;26.52;14.07;;;11.60;99.90;;;;;;5060788;28;20285;-76
2022/11/11 03:55:29;;;;;;;24.83;13.15;;;11.60;99.90;;;;;;5077247;28;20039;-76
2022/11/11 03:57:55;;;;;;;22.63;13.23;;;11.50;99.90;;;;;;5088772;28;20038;-76
2022/11/11 04:00:23;;;;;;;26.15;13.55;;;11.50;99.90;;;;;;5098051;28;20040;-76
2022/11/11 04:11:23;;;;;;;23.40;13.05;;;11.60;99.90;;;;;;5085893;28;20164;-76
2022/11/11 04:16:33;;;;;;;24.20;13.07;;;11.60;99.90;;;;;;5093850;28;20093;-76
2022/11/11 04:21:43;;;;;;;25.67;12.32;;;11.50;99.90;;;;;;5087411;28;20075;-77
2022/11/11 04:27:07;;;;;;;29.52;14.38;;;11.60;99.90;;;;;;5101669;28;20036;-77
2022/11/11 04:29:33;;;;;;;26.85;13.98;;;11.60;99.90;;;;;;5082843;28;20123;-77
2022/11/11 04:34:48;;;;;;;27.17;14.27;;;11.50;99.90;;;;;;5103131;28;20055;-77
2022/11/11 04:37:15;;;;;;;32.40;13.50;;;11.60;99.90;;;;;;5075838;28;20077;-76
2022/11/11 04:42:26;;;;;;;26.70;14.60;;;11.70;99.90;;;;;;5094762;28;20187;-77
2022/11/11 04:47:37;;;;;;;25.17;11.98;;;11.60;99.90;;;;;;5103393;28;19969;-77
2022/11/11 04:50:03;;;;;;;23.20;13.18;;;11.60;99.90;;;;;;5088428;28;20040;-77
2022/11/11 04:52:29;;;;;;;29.30;13.35;;;11.50;99.90;;;;;;5083292;28;20036;-77
2022/11/11 04:57:42;;;;;;;28.83;14.13;;;11.50;99.90;;;;;;5099652;28;20079;-77
2022/11/11 05:00:16;;;;;;;26.98;13.55;;;11.50;99.90;;;;;;5082746;28;20040;-77
2022/11/11 05:05:27;;;;;;;27.50;15.98;;;11.50;99.90;;;;;;5082297;28;20122;-77
2022/11/11 05:10:37;;;;;;;29.52;14.02;;;11.40;99.90;;;;;;5099567;28;19966;-76
2022/11/11 05:21:21;;;;;;;27.63;14.70;;;11.50;99.90;;;;;;5087844;28;20054;-76
2022/11/11 05:26:35;;;;;;;28.52;13.63;;;11.40;99.90;;;;;;5089268;28;20032;-77
2022/11/11 05:29:02;;;;;;;25.90;14.35;;;11.40;99.90;;;;;;5087499;28;20039;-75
2022/11/11 05:31:28;;;;;;;28.45;15.70;;;11.30;99.90;;;;;;5087597;28;20036;-76
2022/11/11 05:33:54;;;;;;;29.73;14.68;;;11.30;99.90;;;;;;5101995;28;20039;-76
2022/11/11 05:36:20;;;;;;;31.85;15.23;;;11.30;99.90;;;;;;5102599;28;20096;-75
2022/11/11 05:38:46;;;;;;;30.92;15.13;;;11.20;99.90;;;;;;5084039;28;20050;-76
2022/11/11 05:41:11;;;;;;;33.87;15.30;;;11.30;99.90;;;;;;5084965;28;20105;-76
2022/11/11 05:43:37;;;;;;;24.43;13.90;;;11.20;99.90;;;;;;5066757;28;20290;-76
2022/11/11 05:46:03;;;;;;;27.50;14.80;;;11.30;99.90;;;;;;5096385;28;20274;-76
2022/11/11 05:48:31;;;;;;;29.60;13.75;;;11.10;99.90;;;;;;5050208;28;20028;-78
2022/11/11 05:51:00;;;;;;;26.42;12.40;;;11.20;99.90;;;;;;5080420;28;20126;-78
2022/11/11 05:53:27;;;;;;;25.50;13.50;;;11.10;99.90;;;;;;5098820;28;20036;-78
2022/11/11 05:55:52;;;;;;;26.63;13.70;;;11.10;99.90;;;;;;5086178;28;20047;-76
2022/11/11 05:58:19;;;;;;;31.35;15.52;;;11.00;99.90;;;;;;5081897;28;20119;-77
2022/11/11 06:00:45;;;;;;;26.55;13.00;;;11.00;99.90;;;;;;5081693;28;20046;-76
2022/11/11 06:03:11;;;;;;;25.67;12.85;;;10.90;99.90;;;;;;5084670;28;20452;-77
2022/11/11 06:05:36;;;;;;;24.08;14.38;;;11.00;99.90;;;;;;5083849;28;20110;-76
2022/11/11 06:08:03;;;;;;;27.23;13.00;;;10.90;99.90;;;;;;5074608;28;20410;-76
2022/11/11 06:10:31;;;;;;;28.73;14.50;;;11.00;99.90;;;;;;5097593;28;20039;-76
2022/11/11 06:13:01;;;;;;;26.58;11.55;;;11.00;99.90;;;;;;5098802;28;20506;-76
2022/11/11 06:15:27;;;;;;;31.25;13.82;;;11.10;99.90;;;;;;5102939;28;20036;-75
2022/11/11 06:17:53;;;;;;;29.25;13.55;;;11.20;99.90;;;;;;5085188;28;20127;-77
2022/11/11 06:20:19;;;;;;;28.02;13.60;;;11.20;99.90;;;;;;5084355;28;20126;-76
2022/11/11 06:22:57;;;;;;;28.33;13.35;;;11.30;99.90;;;;;;5088842;28;20196;-76
2022/11/11 06:28:16;;;;;;;22.92;12.88;;;11.50;99.90;;;;;;5100464;28;20048;-76
2022/11/11 06:30:42;;;;;;;24.40;13.68;;;11.60;99.90;;;;;;5060900;28;20040;-77
2022/11/11 06:33:08;;;;;;;25.80;13.85;;;11.50;99.90;;;;;;5083664;28;20092;-76
2022/11/11 06:35:39;;;;;;;24.20;12.57;;;11.50;99.90;;;;;;5102877;28;20040;-76
2022/11/11 06:38:06;;;;;;;24.52;12.30;;;11.60;99.90;;;;;;5098611;28;20032;-76
2022/11/11 06:40:32;;;;;;;27.25;13.02;;;11.70;99.90;;;;;;5097860;28;20048;-76
2022/11/11 06:42:58;;;;;;;22.67;11.60;;;11.70;99.90;;;;;;5104196;28;20035;-76
2022/11/11 06:45:26;;;;;;;26.77;13.85;;;11.60;99.90;;;;;;5102032;28;20527;-76
2022/11/11 06:47:52;;;;;;;29.35;14.90;;;11.60;99.90;;;;;;5103091;28;20043;-76
2022/11/11 06:50:18;;;;;;;25.30;14.00;;;11.60;99.90;;;;;;5080999;28;20051;-76
2022/11/11 06:52:44;;;;;;;25.42;12.52;;;11.60;99.90;;;;;;5068264;28;20055;-76
2022/11/11 06:55:09;;;;;;;31.90;14.65;;;11.60;99.90;;;;;;5099095;28;20048;-76
2022/11/11 06:57:36;;;;;;;29.08;15.07;;;11.50;99.90;;;;;;5081763;28;20050;-75
2022/11/11 07:00:03;;;;;;;29.55;14.98;;;11.50;99.90;;;;;;5085243;28;20036;-77
2022/11/11 07:02:34;;;;;;;31.63;15.70;;;11.50;99.90;;;;;;5083214;28;20043;-76
2022/11/11 07:05:00;;;;;;;26.65;14.98;;;11.60;99.90;;;;;;5083522;28;20035;-75
2022/11/11 07:07:27;;;;;;;21.65;12.23;;;11.50;99.90;;;;;;5077857;28;20039;-76
2022/11/11 07:09:54;;;;;;;;;;;11.50;99.90;;;;;;5083487;28;20040;-75
2022/11/11 07:12:20;;;;;;;25.98;11.90;;;11.60;99.90;;;;;;5094789;28;19998;-75
2022/11/11 07:14:46;;;;;;;28.48;15.00;;;11.60;99.90;;;;;;5074807;28;20495;-75
2022/11/11 07:17:11;;;;;;;28.90;15.47;;;11.50;99.90;;;;;;5058066;28;20105;-75
2022/11/11 07:19:37;;;;;;;24.30;13.13;;;11.40;99.90;;;;;;5099408;28;20388;-75
2022/11/11 07:22:03;;;;;;;27.50;13.05;;;11.50;99.90;;;;;;5099441;28;20036;-75
2022/11/11 07:24:28;;;;;;;25.73;14.90;;;11.50;99.90;;;;;;5081763;28;20609;-76
2022/11/11 07:26:54;;;;;;;29.58;14.90;;;11.50;99.90;;;;;;5085540;28;20054;-76
2022/11/11 07:29:20;;;;;;;28.73;15.27;;;11.50;99.90;;;;;;5100009;28;20044;-76
2022/11/11 07:31:45;;;;;;;28.50;14.40;;;11.50;99.90;;;;;;5094954;28;21776;-76
2022/11/11 07:34:11;;;;;;;23.40;12.40;;;11.50;99.90;;;;;;5087545;28;20038;-76
2022/11/11 07:36:37;;;;;;;28.27;14.87;;;11.50;99.90;;;;;;5104275;28;20027;-75
2022/11/11 07:39:02;;;;;;;28.60;14.50;;;11.50;99.90;;;;;;5065868;28;20270;-76
2022/11/11 07:41:28;;;;;;;31.23;15.02;;;11.50;99.90;;;;;;5077274;28;20290;-76
2022/11/11 07:43:54;;;;;;;32.30;14.95;;;11.50;99.90;;;;;;5088310;28;20047;-77
2022/11/11 07:46:20;;;;;;;25.70;15.50;;;11.40;99.90;;;;;;5063164;28;20036;-76
2022/11/11 07:48:46;;;;;;;30.77;14.50;;;11.40;99.90;;;;;;5105494;28;20064;-76
2022/11/11 07:51:11;;;;;;;31.90;14.90;;;11.50;99.90;;;;;;5107039;28;20051;-76
2022/11/11 07:53:37;;;;;;;28.37;13.80;;;11.40;99.90;;;;;;5097293;28;20107;-76
2022/11/11 07:56:03;;;;;;;25.80;13.73;;;11.40;99.90;;;;;;5066054;28;20118;-75
2022/11/11 07:58:28;;;;;;;31.55;13.20;;;11.40;99.90;;;;;;5098350;28;20145;-75
2022/11/11 08:00:54;;;;;;;28.13;13.37;;;11.50;99.90;;;;;;5080006;28;20548;-75
2022/11/11 08:03:20;;;;;;;34.43;15.17;;;11.40;99.90;;;;;;5080485;28;20286;-75
2022/11/11 08:05:45;;;;;;;24.93;12.33;;;11.40;99.90;;;;;;5094477;28;20274;-75
2022/11/11 08:08:11;;;;;;;23.33;13.38;;;11.50;99.90;;;;;;5078116;28;20477;-74
2022/11/11 08:10:37;;;;;;;26.90;14.88;;;11.50;99.90;;;;;;5101307;28;20081;-75
2022/11/11 08:15:47;;;;;;;28.35;14.27;;;11.50;99.90;;;;;;5085045;28;20105;-75
2022/11/11 08:18:13;;;;;;;24.25;11.90;;;11.50;99.90;;;;;;5097829;28;20114;-74
2022/11/11 08:20:39;;;;;;;25.63;12.57;;;11.50;99.90;;;;;;5076649;28;20082;-74
2022/11/11 08:23:09;;;;;;;28.05;14.38;;;11.60;99.90;;;;;;5085172;28;20036;-74
2022/11/11 08:25:35;;;;;;;24.75;12.27;;;11.60;99.90;;;;;;5077035;28;20531;-74
2022/11/11 08:28:03;;;;;;;;;;;11.50;99.90;;;;;;5084083;28;20042;-74
2022/11/11 08:30:30;;;;;;;22.75;12.02;;;11.60;99.90;;;;;;5082954;28;20043;-74
2022/11/11 08:32:59;;;;;;;24.80;13.77;;;11.70;99.90;;;;;;5098715;28;20040;-74
2022/11/11 08:35:26;;;;;;;31.50;14.45;;;11.70;99.90;;;;;;5095287;28;20090;-75
2022/11/11 08:37:51;;;;;;;;;;;11.70;99.90;;;;;;5093787;28;20090;-75
2022/11/11 08:40:17;;;;;;;26.58;13.45;;;11.70;99.90;;;;;;5096114;28;19924;-75
2022/11/11 08:42:43;;;;;;;21.38;12.23;;;11.60;99.90;;;;;;5085905;28;20066;-75
2022/11/11 08:45:09;;;;;;;28.42;13.48;;;11.70;99.90;;;;;;5078452;28;20395;-74
2022/11/11 08:47:35;;;;;;;27.77;13.50;;;11.70;99.90;;;;;;5069270;28;20040;-74
2022/11/11 08:50:01;;;;;;;30.52;13.55;;;11.60;99.90;;;;;;5087426;28;20057;-75
2022/11/11 08:52:27;;;;;;;26.52;14.35;;;11.60;99.90;;;;;;5088325;28;20036;-74
2022/11/11 08:54:53;;;;;;;25.73;13.85;;;11.60;99.90;;;;;;5104933;28;20042;-74
2022/11/11 08:57:19;;;;;;;24.50;12.80;;;11.60;99.90;;;;;;5104059;28;20047;-73
2022/11/11 08:59:45;;;;;;;25.73;13.95;;;11.60;99.90;;;;;;5103660;28;20036;-74
2022/11/11 09:02:11;;;;;;;26.20;13.32;;;11.60;99.90;;;;;;5084103;28;20036;-75
2022/11/11 09:04:38;;;;;;;26.02;12.52;;;11.60;99.90;;;;;;5085982;28;20038;-74
2022/11/11 09:07:08;;;;;;;28.33;14.85;;;11.60;99.90;;;;;;5095338;28;20040;-74
2022/11/11 09:09:34;;;;;;;29.90;13.25;;;11.60;99.90;;;;;;5106454;28;20043;-74
2022/11/11 09:12:00;;;;;;;21.58;12.43;;;11.60;99.90;;;;;;5092507;28;20039;-74
2022/11/11 09:14:26;;;;;;;26.65;12.88;;;11.60;99.90;;;;;;5082827;28;20063;-74
2022/11/11 09:16:51;;;;;;;24.53;12.80;;;11.60;99.90;;;;;;5096723;28;20063;-75
2022/11/11 09:19:17;;;;;;;23.13;11.90;;;11.60;99.90;;;;;;5080154;28;20837;-75
2022/11/11 09:21:43;;;;;;;28.70;12.63;;;11.60;99.90;;;;;;5084638;28;20413;-75
2022/11/11 09:24:08;;;;;;;26.48;12.60;;;11.60;99.90;;;;;;5087848;28;20123;-74
2022/11/11 09:26:34;;;;;;;23.67;11.50;;;11.60;99.90;;;;;;5093102;28;20178;-75
2022/11/11 09:29:00;;;;;;;25.55;12.52;;;11.70;99.90;;;;;;5088756;28;20119;-74
2022/11/11 09:31:25;;;;;;;27.73;13.50;;;11.70;99.90;;;;;;5105368;28;20048;-75
2022/11/11 09:33:52;;;;;;;24.88;13.23;;;11.60;99.90;;;;;;5094448;28;20347;-74
2022/11/11 09:36:21;;;;;;;23.10;12.90;;;11.60;99.90;;;;;;5101492;28;20122;-75
2022/11/11 09:38:46;;;;;;;20.25;11.63;;;11.50;99.90;;;;;;5083196;28;20059;-76
2022/11/11 09:41:23;;;;;;;24.67;13.15;;;11.50;99.90;;;;;;5100123;28;20052;-76
2022/11/11 09:43:53;;;;;;;24.55;11.55;;;11.50;99.90;;;;;;5103047;28;20118;-76
2022/11/11 09:47:02;;;;;;;24.25;12.32;;;11.60;99.90;;;;;;5107063;28;20111;-76
2022/11/11 09:49:52;;;;;;;20.95;10.70;;;11.60;99.90;;;;;;5022598;28;20037;-76
2022/11/11 09:52:28;;;;;;;21.35;10.48;;;11.50;99.90;;;;;;5096551;28;20431;-76
2022/11/11 09:55:15;;;;;;;23.45;11.80;;;11.50;99.90;;;;;;5082235;28;20063;-76
2022/11/11 09:57:51;;;;;;;21.50;11.63;;;11.50;99.90;;;;;;5098134;28;20479;-76
2022/11/11 10:00:21;;;;;;;21.88;11.35;;;11.40;99.90;;;;;;5089633;28;20193;-76
2022/11/11 10:03:18;;;;;;;23.48;12.32;;;11.40;99.90;;;;;;5099632;28;20040;-76
2022/11/11 10:05:57;;;;;;;23.95;11.07;;;11.50;99.90;;;;;;5097869;28;20395;-76
2022/11/11 10:08:28;;;;;;;23.45;12.20;;;11.50;99.90;;;;;;5096497;28;20057;-76
2022/11/11 10:10:57;;;;;;;20.30;11.02;;;11.40;99.90;;;;;;5099984;28;20054;-76
2022/11/11 10:13:32;;;;;;;21.63;11.73;;;11.40;99.90;;;;;;5101865;28;20054;-76
2022/11/11 10:16:09;;;;;;;17.30;10.10;;;11.50;99.90;;;;;;5081271;28;20040;-76
2022/11/11 10:18:47;;;;;;;19.77;10.57;;;11.50;99.90;;;;;;5098650;28;20039;-76
2022/11/11 10:21:23;;;;;;;21.10;12.65;;;11.60;99.90;;;;;;5101944;28;20066;-75
2022/11/11 10:23:51;;;;;;;24.00;12.98;;;11.50;99.90;;;;;;5081893;28;20038;-76
2022/11/11 10:26:26;;;;;;;21.38;10.73;;;11.50;99.90;;;;;;5083452;28;20118;-76
2022/11/11 10:28:52;;;;;;;19.98;11.55;;;11.60;99.90;;;;;;5097284;28;20027;-75
2022/11/11 10:31:21;;;;;;;20.08;11.73;;;11.50;99.90;;;;;;5084358;28;20396;-76
2022/11/11 10:33:53;;;;;;;22.20;11.57;;;11.60;99.90;;;;;;5101742;28;20047;-76
2022/11/11 10:36:22;;;;;;;22.00;11.20;;;11.60;99.90;;;;;;5103293;28;20076;-75
2022/11/11 10:38:59;;;;;;;18.30;11.25;;;11.60;99.90;;;;;;5103954;28;20422;-75
2022/11/11 10:41:48;;;;;;;26.05;12.60;;;11.60;99.90;;;;;;5100227;28;20052;-76
2022/11/11 10:44:27;;;;;;;17.65;10.55;;;11.60;99.90;;;;;;5100466;28;20067;-76
2022/11/11 10:47:07;;;;;;;20.70;12.00;;;11.60;99.90;;;;;;5081672;28;20039;-76
2022/11/11 10:49:38;;;;;;;19.75;10.55;;;11.70;99.90;;;;;;5080727;28;20040;-76
2022/11/11 10:52:19;;;;;;;15.93;9.13;;;11.70;99.90;;;;;;5095996;28;20094;-76
2022/11/11 10:55:22;;;;;;;19.30;11.00;;;11.70;99.90;;;;;;5079131;28;20031;-75
2022/11/11 10:58:01;;;;;;;19.20;11.70;;;11.80;99.90;;;;;;5079260;28;20082;-76
2022/11/11 11:00:27;;;;;;;23.35;12.35;;;11.80;99.90;;;;;;5096321;28;20505;-75
2022/11/11 11:02:58;;;;;;;18.15;10.30;;;11.80;99.90;;;;;;5066135;28;20032;-75
2022/11/11 11:05:41;;;;;;;20.10;11.85;;;11.80;99.90;;;;;;5099411;28;20036;-74
2022/11/11 11:08:20;;;;;;;21.02;12.02;;;11.80;99.90;;;;;;5082139;28;20051;-75
2022/11/11 11:10:55;;;;;;;22.70;12.25;;;11.70;99.90;;;;;;5084410;28;20039;-75
2022/11/11 11:13:30;;;;;;;19.77;12.07;;;11.80;99.90;;;;;;5094472;28;20511;-75
2022/11/11 11:16:02;;;;;;;19.52;11.20;;;11.80;99.90;;;;;;5093034;28;20036;-74
2022/11/11 11:18:28;;;;;;;21.55;10.40;;;11.80;99.90;;;;;;5084756;28;20043;-74
2022/11/11 11:20:59;;;;;;;23.10;12.85;;;11.80;99.90;;;;;;5084211;28;20036;-74
2022/11/11 11:23:42;;;;;;;23.38;12.68;;;11.90;99.90;;;;;;5095111;28;20332;-74
2022/11/11 11:26:10;;;;;;;22.23;12.60;;;12.00;99.90;;;;;;5069478;28;20088;-74
2022/11/11 11:28:56;;;;;;;17.98;10.77;;;11.90;99.90;;;;;;5083454;28;20047;-74
2022/11/11 11:31:36;;;;;;;19.23;11.18;;;12.00;99.90;;;;;;5097935;28;20067;-74
2022/11/11 11:34:03;;;;;;;19.92;11.15;;;11.90;99.90;;;;;;5083245;28;20043;-74
2022/11/11 11:36:29;;;;;;;23.90;11.68;;;11.90;99.90;;;;;;5103242;28;20498;-75
2022/11/11 11:38:54;;;;;;;21.45;11.98;;;11.90;99.90;;;;;;5104899;28;20051;-74
2022/11/11 11:41:40;;;;;;;19.75;10.57;;;11.90;99.90;;;;;;5085282;28;20052;-74
2022/11/11 11:44:25;;;;;;;19.50;11.15;;;11.90;99.90;;;;;;5100268;28;20075;-74
2022/11/11 11:46:56;;;;;;;17.42;10.48;;;11.90;99.90;;;;;;5101953;28;20036;-74
2022/11/11 11:49:36;;;;;;;18.23;10.20;;;11.90;99.90;;;;;;5100310;28;20512;-73
2022/11/11 11:52:19;;;;;;;22.40;11.85;;;12.00;99.90;;;;;;5097190;28;20044;-74
2022/11/11 11:54:49;;;;;;;18.63;11.20;;;12.10;99.90;;;;;;5100097;28;20040;-74
2022/11/11 11:57:20;;;;;;;20.67;10.77;;;12.00;99.90;;;;;;5097734;28;20032;-74
2022/11/11 12:00:22;;;;;;;17.52;9.85;;;11.90;99.90;;;;;;5083565;28;20122;-74
2022/11/11 12:03:00;;;;;;;16.13;10.20;;;12.00;99.90;;;;;;5078989;28;20044;-73
2022/11/11 12:05:48;;;;;;;17.42;10.70;;;12.00;99.90;;;;;;5100171;28;20051;-73
2022/11/11 12:08:22;;;;;;;18.75;10.35;;;11.90;99.90;;;;;;5081239;28;20043;-73
2022/11/11 12:11:07;;;;;;;15.70;10.10;;;11.90;99.90;;;;;;5100039;28;20035;-73
2022/11/11 12:13:49;;;;;;;17.23;9.85;;;12.00;99.90;;;;;;5097222;28;20071;-73
2022/11/11 12:16:20;;;;;;;17.30;10.00;;;12.10;99.90;;;;;;5094005;28;20113;-73
2022/11/11 12:18:58;;;;;;;19.90;10.55;;;12.00;99.90;;;;;;5103180;28;20559;-73
2022/11/11 12:21:48;;;;;;;18.48;10.63;;;12.00;99.90;;;;;;5074708;28;20486;-73
2022/11/11 12:24:34;;;;;;;20.23;11.27;;;12.00;99.90;;;;;;5099552;28;20082;-73
2022/11/11 12:27:08;;;;;;;20.60;10.63;;;12.00;99.90;;;;;;5055939;28;20530;-73
2022/11/11 12:29:59;;;;;;;17.77;9.52;;;12.00;99.90;;;;;;5105076;28;20115;-73
2022/11/11 12:33:08;;;;;;;19.10;9.68;;;12.00;99.90;;;;;;5097641;28;20039;-74
2022/11/11 12:35:52;;;;;;;15.65;9.65;;;12.00;99.90;;;;;;5111709;28;20380;-74
2022/11/11 12:38:55;;;;;;;20.67;10.95;;;11.90;99.90;;;;;;5088136;28;20050;-74
2022/11/11 12:41:26;;;;;;;19.88;10.02;;;11.90;99.90;;;;;;5100805;28;20046;-74
2022/11/11 12:44:05;;;;;;;16.75;9.68;;;11.90;99.90;;;;;;5095944;28;20407;-74
2022/11/11 12:46:40;;;;;;;19.88;10.43;;;11.90;99.90;;;;;;5086363;28;20468;-74
2022/11/11 12:49:32;;;;;;;19.17;11.40;;;11.80;99.90;;;;;;5081865;28;20039;-74
2022/11/11 12:52:28;;;;;;;17.73;10.90;;;11.80;99.90;;;;;;5099603;28;20036;-74
2022/11/11 12:55:19;;;;;;;17.73;9.85;;;11.80;99.90;;;;;;5101634;28;20039;-74
2022/11/11 12:58:05;;;;;;;16.98;9.70;;;11.90;99.90;;;;;;5101435;28;20077;-82
2022/11/11 13:00:37;;;;;;;16.42;9.70;;;11.90;99.90;;;;;;5082441;28;20059;-83
2022/11/11 13:03:59;;;;;;;20.35;10.43;;;11.90;99.90;;;;;;5101316;28;20036;-83
2022/11/11 13:06:32;;;;;;;19.10;10.77;;;11.90;99.90;;;;;;4977801;28;20184;-83
2022/11/11 13:09:12;;;;;;;20.17;11.02;;;11.70;99.90;;;;;;4995599;28;20042;-83
2022/11/11 13:12:03;;;;;;;19.88;10.65;;;11.70;99.90;;;;;;5052304;28;20067;-83
2022/11/11 13:14:41;;;;;;;17.98;10.27;;;11.70;99.90;;;;;;5048666;28;20143;-83
2022/11/11 13:17:11;;;;;;;21.63;10.98;;;11.70;99.90;;;;;;5083045;28;20043;-83
2022/11/11 13:19:47;;;;;;;23.67;11.88;;;11.70;99.90;;;;;;5097687;28;20070;-83
2022/11/11 13:22:25;;;;;;;19.08;11.00;;;11.70;99.90;;;;;;5080895;28;20031;-83
2022/11/11 13:24:53;;;;;;;20.20;10.90;;;11.60;99.90;;;;;;5099162;28;20046;-83
2022/11/11 13:27:30;;;;;;;21.17;11.02;;;11.80;99.90;;;;;;5100949;28;20039;-83
2022/11/11 13:30:31;;;;;;;20.75;11.27;;;11.60;99.90;;;;;;5082429;28;20874;-85
2022/11/11 13:33:14;;;;;;;20.45;10.88;;;11.60;99.90;;;;;;5084829;28;20048;-83
2022/11/11 13:35:56;;;;;;;22.58;11.50;;;11.70;99.90;;;;;;5082221;28;20075;-84
2022/11/11 13:38:59;;;;;;;21.17;11.02;;;11.70;99.90;;;;;;5083354;28;20162;-83
2022/11/11 13:41:35;;;;;;;18.45;11.05;;;11.70;99.90;;;;;;5051706;28;20049;-83
2022/11/11 13:44:08;;;;;;;26.42;11.52;;;11.60;99.90;;;;;;5095497;28;20412;-83
2022/11/11 13:46:40;;;;;;;22.02;12.27;;;11.70;99.90;;;;;;5078615;28;20582;-83
2022/11/11 13:49:20;;;;;;;21.80;11.63;;;11.70;99.90;;;;;;5103215;28;20027;-83
2022/11/11 13:51:56;;;;;;;22.60;10.98;;;11.80;99.90;;;;;;5096241;28;20395;-83
2022/11/11 13:54:39;;;;;;;19.50;11.25;;;11.70;99.90;;;;;;5098754;28;20092;-84
2022/11/11 13:57:19;;;;;;;18.73;10.77;;;11.70;99.90;;;;;;5101681;28;20404;-84
2022/11/11 13:59:59;;;;;;;20.27;10.57;;;11.70;99.90;;;;;;5096216;28;20062;-84
2022/11/11 14:02:33;;;;;;;19.58;10.00;;;11.70;99.90;;;;;;5081301;28;20040;-84
2022/11/11 14:05:02;;;;;;;20.30;11.10;;;11.70;99.90;;;;;;5099095;28;20384;-74